sensor_id;sensor_type;location;lat;lon;timestamp;P1;durP1;ratioP1;P2;durP2;ratioP2
48042;SDS011;33988;47.992;8.820;2022-08-19T00:00:05;10.55;;;8.45;;
48042;SDS011;33988;47.992;8.820;2022-08-19T00:02:35;9.05;;;8.13;;
48042;SDS011;33988;47.992;8.820;2022-08-19T00:05:16;10.43;;;8.90;;
48042;SDS011;33988;47.992;8.820;2022-08-19T00:07:44;9.40;;;8.23;;
48042;SDS011;33988;47.992;8.820;2022-08-19T00:10:12;9.52;;;8.52;;
48042;SDS011;33988;47.992;8.820;2022-08-19T00:12:44;11.20;;;9.55;;
48042;SDS011;33988;47.992;8.820;2022-08-19T00:15:13;9.93;;;8.93;;
48042;SDS011;33988;47.992;8.820;2022-08-19T00:17:43;8.90;;;8.02;;
48042;SDS011;33988;47.992;8.820;2022-08-19T00:20:16;10.43;;;8.80;;
48042;SDS011;33988;47.992;8.820;2022-08-19T00:22:47;9.73;;;8.73;;
48042;SDS011;33988;47.992;8.820;2022-08-19T00:25:15;10.77;;;6.68;;
48042;SDS011;33988;47.992;8.820;2022-08-19T00:27:55;9.05;;;8.13;;
48042;SDS011;33988;47.992;8.820;2022-08-19T00:30:25;10.68;;;8.73;;
48042;SDS011;33988;47.992;8.820;2022-08-19T00:32:56;11.40;;;8.53;;
48042;SDS011;33988;47.992;8.820;2022-08-19T00:35:23;9.27;;;8.27;;
48042;SDS011;33988;47.992;8.820;2022-08-19T00:37:54;10.02;;;9.02;;
48042;SDS011;33988;47.992;8.820;2022-08-19T00:40:26;9.57;;;8.32;;
48042;SDS011;33988;47.992;8.820;2022-08-19T00:42:58;8.82;;;7.70;;
48042;SDS011;33988;47.992;8.820;2022-08-19T00:45:27;10.15;;;9.07;;
48042;SDS011;33988;47.992;8.820;2022-08-19T00:48:02;8.43;;;7.57;;
48042;SDS011;33988;47.992;8.820;2022-08-19T00:50:40;9.45;;;7.68;;
48042;SDS011;33988;47.992;8.820;2022-08-19T00:53:18;8.30;;;7.05;;
48042;SDS011;33988;47.992;8.820;2022-08-19T00:55:50;8.65;;;7.75;;
48042;SDS011;33988;47.992;8.820;2022-08-19T00:58:23;9.25;;;8.23;;
48042;SDS011;33988;47.992;8.820;2022-08-19T01:00:56;9.20;;;8.30;;
48042;SDS011;33988;47.992;8.820;2022-08-19T01:03:24;9.18;;;8.20;;
48042;SDS011;33988;47.992;8.820;2022-08-19T01:05:53;9.77;;;8.15;;
48042;SDS011;33988;47.992;8.820;2022-08-19T01:08:21;9.45;;;8.00;;
48042;SDS011;33988;47.992;8.820;2022-08-19T01:10:52;10.45;;;8.77;;
48042;SDS011;33988;47.992;8.820;2022-08-19T01:13:26;9.88;;;8.48;;
48042;SDS011;33988;47.992;8.820;2022-08-19T01:16:14;11.43;;;8.43;;
48042;SDS011;33988;47.992;8.820;2022-08-19T01:18:46;10.05;;;7.70;;
48042;SDS011;33988;47.992;8.820;2022-08-19T01:21:22;9.18;;;8.10;;
48042;SDS011;33988;47.992;8.820;2022-08-19T01:24:03;10.13;;;8.48;;
48042;SDS011;33988;47.992;8.820;2022-08-19T01:26:31;9.43;;;8.40;;
48042;SDS011;33988;47.992;8.820;2022-08-19T01:29:07;10.00;;;7.93;;
48042;SDS011;33988;47.992;8.820;2022-08-19T01:31:35;10.95;;;8.10;;
48042;SDS011;33988;47.992;8.820;2022-08-19T01:34:06;9.90;;;8.82;;
48042;SDS011;33988;47.992;8.820;2022-08-19T01:36:36;11.35;;;9.27;;
48042;SDS011;33988;47.992;8.820;2022-08-19T01:39:12;11.02;;;8.48;;
48042;SDS011;33988;47.992;8.820;2022-08-19T01:41:50;10.07;;;8.50;;
48042;SDS011;33988;47.992;8.820;2022-08-19T01:44:20;8.93;;;7.70;;
48042;SDS011;33988;47.992;8.820;2022-08-19T01:46:50;9.73;;;8.73;;
48042;SDS011;33988;47.992;8.820;2022-08-19T01:49:21;10.10;;;7.95;;
48042;SDS011;33988;47.992;8.820;2022-08-19T01:51:53;9.40;;;8.18;;
48042;SDS011;33988;47.992;8.820;2022-08-19T01:54:26;9.10;;;7.70;;
48042;SDS011;33988;47.992;8.820;2022-08-19T01:56:55;11.23;;;9.38;;
48042;SDS011;33988;47.992;8.820;2022-08-19T01:59:29;9.93;;;8.90;;
48042;SDS011;33988;47.992;8.820;2022-08-19T02:02:04;9.77;;;8.07;;
48042;SDS011;33988;47.992;8.820;2022-08-19T02:04:33;11.32;;;9.27;;
48042;SDS011;33988;47.992;8.820;2022-08-19T02:07:02;12.05;;;10.27;;
48042;SDS011;33988;47.992;8.820;2022-08-19T02:09:31;11.77;;;9.82;;
48042;SDS011;33988;47.992;8.820;2022-08-19T02:11:58;15.88;;;10.65;;
48042;SDS011;33988;47.992;8.820;2022-08-19T02:14:26;11.80;;;9.43;;
48042;SDS011;33988;47.992;8.820;2022-08-19T02:16:53;13.38;;;9.70;;
48042;SDS011;33988;47.992;8.820;2022-08-19T02:19:22;11.93;;;9.57;;
48042;SDS011;33988;47.992;8.820;2022-08-19T02:21:52;12.27;;;10.20;;
48042;SDS011;33988;47.992;8.820;2022-08-19T02:24:19;10.82;;;8.70;;
48042;SDS011;33988;47.992;8.820;2022-08-19T02:26:46;13.75;;;9.80;;
48042;SDS011;33988;47.992;8.820;2022-08-19T02:29:16;10.95;;;9.45;;
48042;SDS011;33988;47.992;8.820;2022-08-19T02:31:45;10.55;;;9.20;;
48042;SDS011;33988;47.992;8.820;2022-08-19T02:34:14;11.65;;;10.07;;
48042;SDS011;33988;47.992;8.820;2022-08-19T02:36:42;11.95;;;10.00;;
48042;SDS011;33988;47.992;8.820;2022-08-19T02:39:17;12.57;;;9.35;;
48042;SDS011;33988;47.992;8.820;2022-08-19T02:41:47;11.93;;;9.88;;
48042;SDS011;33988;47.992;8.820;2022-08-19T02:44:16;14.40;;;9.63;;
48042;SDS011;33988;47.992;8.820;2022-08-19T02:46:59;11.13;;;9.45;;
48042;SDS011;33988;47.992;8.820;2022-08-19T02:49:30;13.90;;;8.60;;
48042;SDS011;33988;47.992;8.820;2022-08-19T02:52:00;12.35;;;9.32;;
48042;SDS011;33988;47.992;8.820;2022-08-19T02:54:27;11.95;;;9.63;;
48042;SDS011;33988;47.992;8.820;2022-08-19T02:56:54;13.27;;;10.68;;
48042;SDS011;33988;47.992;8.820;2022-08-19T02:59:21;15.27;;;10.98;;
48042;SDS011;33988;47.992;8.820;2022-08-19T03:01:48;13.13;;;10.32;;
48042;SDS011;33988;47.992;8.820;2022-08-19T03:04:16;13.00;;;10.25;;
48042;SDS011;33988;47.992;8.820;2022-08-19T03:06:47;14.93;;;11.38;;
48042;SDS011;33988;47.992;8.820;2022-08-19T03:09:18;15.10;;;10.70;;
48042;SDS011;33988;47.992;8.820;2022-08-19T03:11:46;11.80;;;9.77;;
48042;SDS011;33988;47.992;8.820;2022-08-19T03:14:17;12.07;;;9.15;;
48042;SDS011;33988;47.992;8.820;2022-08-19T03:16:48;12.43;;;9.85;;
48042;SDS011;33988;47.992;8.820;2022-08-19T03:19:18;15.07;;;9.13;;
48042;SDS011;33988;47.992;8.820;2022-08-19T03:21:47;10.52;;;9.07;;
48042;SDS011;33988;47.992;8.820;2022-08-19T03:24:17;11.57;;;8.70;;
48042;SDS011;33988;47.992;8.820;2022-08-19T03:26:47;12.23;;;9.60;;
48042;SDS011;33988;47.992;8.820;2022-08-19T03:29:18;12.20;;;8.98;;
48042;SDS011;33988;47.992;8.820;2022-08-19T03:31:56;12.70;;;9.27;;
48042;SDS011;33988;47.992;8.820;2022-08-19T03:34:30;13.05;;;10.38;;
48042;SDS011;33988;47.992;8.820;2022-08-19T03:37:03;10.95;;;9.25;;
48042;SDS011;33988;47.992;8.820;2022-08-19T03:39:35;13.23;;;9.18;;
48042;SDS011;33988;47.992;8.820;2022-08-19T03:42:09;11.95;;;9.32;;
48042;SDS011;33988;47.992;8.820;2022-08-19T03:44:59;13.10;;;10.40;;
48042;SDS011;33988;47.992;8.820;2022-08-19T03:47:26;13.30;;;10.73;;
48042;SDS011;33988;47.992;8.820;2022-08-19T03:49:57;11.80;;;9.93;;
48042;SDS011;33988;47.992;8.820;2022-08-19T03:52:25;13.27;;;10.80;;
48042;SDS011;33988;47.992;8.820;2022-08-19T03:54:54;13.18;;;10.27;;
48042;SDS011;33988;47.992;8.820;2022-08-19T03:57:21;11.65;;;9.43;;
48042;SDS011;33988;47.992;8.820;2022-08-19T03:59:57;11.65;;;9.50;;
48042;SDS011;33988;47.992;8.820;2022-08-19T04:02:38;11.60;;;9.45;;
48042;SDS011;33988;47.992;8.820;2022-08-19T04:05:06;15.40;;;10.18;;
48042;SDS011;33988;47.992;8.820;2022-08-19T04:07:36;11.23;;;9.32;;
48042;SDS011;33988;47.992;8.820;2022-08-19T04:10:05;12.30;;;9.52;;
48042;SDS011;33988;47.992;8.820;2022-08-19T04:12:36;14.32;;;10.32;;
48042;SDS011;33988;47.992;8.820;2022-08-19T04:15:08;12.15;;;9.85;;
48042;SDS011;33988;47.992;8.820;2022-08-19T04:17:35;14.05;;;11.25;;
48042;SDS011;33988;47.992;8.820;2022-08-19T04:20:06;13.85;;;11.38;;
48042;SDS011;33988;47.992;8.820;2022-08-19T04:22:36;14.05;;;11.10;;
48042;SDS011;33988;47.992;8.820;2022-08-19T04:25:03;14.35;;;11.73;;
48042;SDS011;33988;47.992;8.820;2022-08-19T04:27:31;12.85;;;10.75;;
48042;SDS011;33988;47.992;8.820;2022-08-19T04:30:02;14.45;;;11.02;;
48042;SDS011;33988;47.992;8.820;2022-08-19T04:32:30;12.88;;;10.40;;
48042;SDS011;33988;47.992;8.820;2022-08-19T04:34:58;13.73;;;11.20;;
48042;SDS011;33988;47.992;8.820;2022-08-19T04:37:43;18.98;;;11.43;;
48042;SDS011;33988;47.992;8.820;2022-08-19T04:40:10;14.35;;;10.95;;
48042;SDS011;33988;47.992;8.820;2022-08-19T04:42:56;16.88;;;11.43;;
48042;SDS011;33988;47.992;8.820;2022-08-19T04:45:27;13.82;;;11.07;;
48042;SDS011;33988;47.992;8.820;2022-08-19T04:48:04;13.52;;;11.20;;
48042;SDS011;33988;47.992;8.820;2022-08-19T04:50:52;14.90;;;10.10;;
48042;SDS011;33988;47.992;8.820;2022-08-19T04:53:27;10.10;;;8.98;;
48042;SDS011;33988;47.992;8.820;2022-08-19T04:56:07;11.15;;;9.30;;
48042;SDS011;33988;47.992;8.820;2022-08-19T04:58:43;12.18;;;9.82;;
48042;SDS011;33988;47.992;8.820;2022-08-19T05:01:12;12.95;;;11.05;;
48042;SDS011;33988;47.992;8.820;2022-08-19T05:03:43;14.30;;;10.52;;
48042;SDS011;33988;47.992;8.820;2022-08-19T05:06:11;13.70;;;10.65;;
48042;SDS011;33988;47.992;8.820;2022-08-19T05:08:40;18.95;;;12.77;;
48042;SDS011;33988;47.992;8.820;2022-08-19T05:11:12;12.93;;;10.00;;
48042;SDS011;33988;47.992;8.820;2022-08-19T05:13:44;13.00;;;10.98;;
48042;SDS011;33988;47.992;8.820;2022-08-19T05:16:12;11.63;;;9.65;;
48042;SDS011;33988;47.992;8.820;2022-08-19T05:18:45;10.45;;;9.25;;
48042;SDS011;33988;47.992;8.820;2022-08-19T05:21:32;10.70;;;9.55;;
48042;SDS011;33988;47.992;8.820;2022-08-19T05:24:22;11.93;;;9.63;;
48042;SDS011;33988;47.992;8.820;2022-08-19T05:26:56;12.63;;;10.73;;
48042;SDS011;33988;47.992;8.820;2022-08-19T05:29:24;11.98;;;10.02;;
48042;SDS011;33988;47.992;8.820;2022-08-19T05:32:03;12.95;;;10.63;;
48042;SDS011;33988;47.992;8.820;2022-08-19T05:34:34;13.05;;;10.30;;
48042;SDS011;33988;47.992;8.820;2022-08-19T05:37:02;12.88;;;10.75;;
48042;SDS011;33988;47.992;8.820;2022-08-19T05:39:32;11.20;;;9.75;;
48042;SDS011;33988;47.992;8.820;2022-08-19T05:42:05;13.93;;;11.45;;
48042;SDS011;33988;47.992;8.820;2022-08-19T05:44:36;12.93;;;11.30;;
48042;SDS011;33988;47.992;8.820;2022-08-19T05:47:10;13.35;;;11.07;;
48042;SDS011;33988;47.992;8.820;2022-08-19T05:49:41;15.30;;;12.02;;
48042;SDS011;33988;47.992;8.820;2022-08-19T05:52:11;15.73;;;11.40;;
48042;SDS011;33988;47.992;8.820;2022-08-19T05:54:50;14.57;;;11.20;;
48042;SDS011;33988;47.992;8.820;2022-08-19T05:57:18;14.98;;;12.30;;
48042;SDS011;33988;47.992;8.820;2022-08-19T05:59:45;14.18;;;10.95;;
48042;SDS011;33988;47.992;8.820;2022-08-19T06:02:18;14.93;;;11.60;;
48042;SDS011;33988;47.992;8.820;2022-08-19T06:04:45;14.75;;;11.68;;
48042;SDS011;33988;47.992;8.820;2022-08-19T06:07:15;11.15;;;9.98;;
48042;SDS011;33988;47.992;8.820;2022-08-19T06:09:43;14.25;;;10.27;;
48042;SDS011;33988;47.992;8.820;2022-08-19T06:12:30;15.25;;;9.48;;
48042;SDS011;33988;47.992;8.820;2022-08-19T06:15:02;13.32;;;9.48;;
48042;SDS011;33988;47.992;8.820;2022-08-19T06:17:37;12.05;;;9.82;;
48042;SDS011;33988;47.992;8.820;2022-08-19T06:20:08;12.80;;;10.50;;
48042;SDS011;33988;47.992;8.820;2022-08-19T06:22:44;12.75;;;10.73;;
48042;SDS011;33988;47.992;8.820;2022-08-19T06:25:15;11.65;;;10.38;;
48042;SDS011;33988;47.992;8.820;2022-08-19T06:27:45;12.35;;;10.43;;
48042;SDS011;33988;47.992;8.820;2022-08-19T06:30:33;13.23;;;10.00;;
48042;SDS011;33988;47.992;8.820;2022-08-19T06:33:00;13.10;;;9.68;;
48042;SDS011;33988;47.992;8.820;2022-08-19T06:35:26;11.35;;;10.15;;
48042;SDS011;33988;47.992;8.820;2022-08-19T06:37:55;10.63;;;9.02;;
48042;SDS011;33988;47.992;8.820;2022-08-19T06:40:22;12.15;;;9.95;;
48042;SDS011;33988;47.992;8.820;2022-08-19T06:42:50;14.23;;;9.85;;
48042;SDS011;33988;47.992;8.820;2022-08-19T06:45:23;13.13;;;10.65;;
48042;SDS011;33988;47.992;8.820;2022-08-19T06:48:00;12.95;;;10.00;;
48042;SDS011;33988;47.992;8.820;2022-08-19T06:50:30;11.70;;;10.05;;
48042;SDS011;33988;47.992;8.820;2022-08-19T06:53:01;12.77;;;10.90;;
48042;SDS011;33988;47.992;8.820;2022-08-19T06:55:29;13.82;;;9.60;;
48042;SDS011;33988;47.992;8.820;2022-08-19T06:58:02;14.05;;;11.43;;
48042;SDS011;33988;47.992;8.820;2022-08-19T07:00:30;12.80;;;10.43;;
48042;SDS011;33988;47.992;8.820;2022-08-19T07:03:00;12.13;;;10.18;;
48042;SDS011;33988;47.992;8.820;2022-08-19T07:05:38;13.23;;;11.23;;
48042;SDS011;33988;47.992;8.820;2022-08-19T07:08:10;14.82;;;11.32;;
48042;SDS011;33988;47.992;8.820;2022-08-19T07:10:45;14.35;;;11.02;;
48042;SDS011;33988;47.992;8.820;2022-08-19T07:13:12;14.65;;;11.23;;
48042;SDS011;33988;47.992;8.820;2022-08-19T07:15:39;14.18;;;11.60;;
48042;SDS011;33988;47.992;8.820;2022-08-19T07:18:06;14.38;;;10.93;;
48042;SDS011;33988;47.992;8.820;2022-08-19T07:20:37;16.70;;;10.43;;
48042;SDS011;33988;47.992;8.820;2022-08-19T07:23:07;13.73;;;11.05;;
48042;SDS011;33988;47.992;8.820;2022-08-19T07:25:37;17.08;;;12.23;;
48042;SDS011;33988;47.992;8.820;2022-08-19T07:28:06;17.48;;;12.30;;
48042;SDS011;33988;47.992;8.820;2022-08-19T07:30:49;19.35;;;13.10;;
48042;SDS011;33988;47.992;8.820;2022-08-19T07:33:18;14.98;;;11.95;;
48042;SDS011;33988;47.992;8.820;2022-08-19T07:35:45;14.10;;;11.35;;
48042;SDS011;33988;47.992;8.820;2022-08-19T07:38:12;14.10;;;11.50;;
48042;SDS011;33988;47.992;8.820;2022-08-19T07:40:41;16.55;;;11.48;;
48042;SDS011;33988;47.992;8.820;2022-08-19T07:43:12;15.80;;;11.80;;
48042;SDS011;33988;47.992;8.820;2022-08-19T07:45:43;17.33;;;11.25;;
48042;SDS011;33988;47.992;8.820;2022-08-19T07:48:11;17.67;;;12.38;;
48042;SDS011;33988;47.992;8.820;2022-08-19T07:50:43;15.35;;;11.20;;
48042;SDS011;33988;47.992;8.820;2022-08-19T07:53:14;18.63;;;13.27;;
48042;SDS011;33988;47.992;8.820;2022-08-19T07:55:41;16.00;;;12.50;;
48042;SDS011;33988;47.992;8.820;2022-08-19T07:58:10;17.63;;;12.88;;
48042;SDS011;33988;47.992;8.820;2022-08-19T08:00:43;15.10;;;11.10;;
48042;SDS011;33988;47.992;8.820;2022-08-19T08:03:13;16.27;;;12.55;;
48042;SDS011;33988;47.992;8.820;2022-08-19T08:08:30;12.77;;;9.88;;
48042;SDS011;33988;47.992;8.820;2022-08-19T08:11:13;17.45;;;12.50;;
48042;SDS011;33988;47.992;8.820;2022-08-19T08:13:45;18.92;;;13.48;;
48042;SDS011;33988;47.992;8.820;2022-08-19T08:16:29;17.27;;;12.02;;
48042;SDS011;33988;47.992;8.820;2022-08-19T08:18:59;17.17;;;13.23;;
48042;SDS011;33988;47.992;8.820;2022-08-19T08:21:26;17.30;;;12.27;;
48042;SDS011;33988;47.992;8.820;2022-08-19T08:23:54;16.77;;;12.90;;
48042;SDS011;33988;47.992;8.820;2022-08-19T08:26:22;16.00;;;12.60;;
48042;SDS011;33988;47.992;8.820;2022-08-19T08:28:49;17.35;;;12.65;;
48042;SDS011;33988;47.992;8.820;2022-08-19T08:31:20;18.25;;;13.30;;
48042;SDS011;33988;47.992;8.820;2022-08-19T08:33:47;17.90;;;12.93;;
48042;SDS011;33988;47.992;8.820;2022-08-19T08:36:17;15.65;;;12.68;;
48042;SDS011;33988;47.992;8.820;2022-08-19T08:38:44;15.93;;;12.25;;
48042;SDS011;33988;47.992;8.820;2022-08-19T08:43:49;17.45;;;13.38;;
48042;SDS011;33988;47.992;8.820;2022-08-19T08:46:23;15.52;;;11.98;;
48042;SDS011;33988;47.992;8.820;2022-08-19T08:52:05;16.13;;;12.38;;
48042;SDS011;33988;47.992;8.820;2022-08-19T08:54:38;15.73;;;11.95;;
48042;SDS011;33988;47.992;8.820;2022-08-19T09:00:08;15.25;;;11.15;;
48042;SDS011;33988;47.992;8.820;2022-08-19T09:02:45;19.05;;;13.77;;
48042;SDS011;33988;47.992;8.820;2022-08-19T09:05:16;17.67;;;12.88;;
48042;SDS011;33988;47.992;8.820;2022-08-19T09:07:59;19.10;;;12.40;;
48042;SDS011;33988;47.992;8.820;2022-08-19T09:10:32;14.75;;;11.35;;
48042;SDS011;33988;47.992;8.820;2022-08-19T09:15:43;15.13;;;11.70;;
48042;SDS011;33988;47.992;8.820;2022-08-19T09:18:14;14.75;;;11.32;;
48042;SDS011;33988;47.992;8.820;2022-08-19T09:20:45;16.25;;;12.32;;
48042;SDS011;33988;47.992;8.820;2022-08-19T09:23:15;15.75;;;11.65;;
48042;SDS011;33988;47.992;8.820;2022-08-19T09:25:42;15.20;;;11.32;;
48042;SDS011;33988;47.992;8.820;2022-08-19T09:28:11;15.10;;;12.05;;
48042;SDS011;33988;47.992;8.820;2022-08-19T09:30:52;15.00;;;11.00;;
48042;SDS011;33988;47.992;8.820;2022-08-19T09:33:26;14.32;;;10.80;;
48042;SDS011;33988;47.992;8.820;2022-08-19T09:36:14;15.05;;;12.05;;
48042;SDS011;33988;47.992;8.820;2022-08-19T09:38:58;18.92;;;12.75;;
48042;SDS011;33988;47.992;8.820;2022-08-19T09:41:29;13.07;;;11.07;;
48042;SDS011;33988;47.992;8.820;2022-08-19T09:43:56;15.57;;;12.20;;
48042;SDS011;33988;47.992;8.820;2022-08-19T09:46:27;15.70;;;12.18;;
48042;SDS011;33988;47.992;8.820;2022-08-19T09:48:59;14.82;;;11.40;;
48042;SDS011;33988;47.992;8.820;2022-08-19T09:51:31;12.85;;;11.15;;
48042;SDS011;33988;47.992;8.820;2022-08-19T09:54:03;14.68;;;11.82;;
48042;SDS011;33988;47.992;8.820;2022-08-19T09:56:36;14.77;;;11.18;;
48042;SDS011;33988;47.992;8.820;2022-08-19T09:59:07;18.40;;;12.52;;
48042;SDS011;33988;47.992;8.820;2022-08-19T10:01:35;15.55;;;12.18;;
48042;SDS011;33988;47.992;8.820;2022-08-19T10:04:08;13.43;;;11.68;;
48042;SDS011;33988;47.992;8.820;2022-08-19T10:06:45;14.48;;;11.50;;
48042;SDS011;33988;47.992;8.820;2022-08-19T10:09:18;13.45;;;10.85;;
48042;SDS011;33988;47.992;8.820;2022-08-19T10:12:00;12.75;;;10.75;;
48042;SDS011;33988;47.992;8.820;2022-08-19T10:14:37;14.55;;;11.57;;
48042;SDS011;33988;47.992;8.820;2022-08-19T10:17:06;16.95;;;12.63;;
48042;SDS011;33988;47.992;8.820;2022-08-19T10:19:46;13.45;;;10.65;;
48042;SDS011;33988;47.992;8.820;2022-08-19T10:22:21;14.18;;;12.15;;
48042;SDS011;33988;47.992;8.820;2022-08-19T10:24:51;17.13;;;13.20;;
48042;SDS011;33988;47.992;8.820;2022-08-19T10:27:22;13.70;;;11.07;;
48042;SDS011;33988;47.992;8.820;2022-08-19T10:29:51;14.88;;;12.20;;
48042;SDS011;33988;47.992;8.820;2022-08-19T10:32:20;15.32;;;12.18;;
48042;SDS011;33988;47.992;8.820;2022-08-19T10:34:59;14.77;;;11.65;;
48042;SDS011;33988;47.992;8.820;2022-08-19T10:37:31;14.88;;;12.32;;
48042;SDS011;33988;47.992;8.820;2022-08-19T10:40:13;16.55;;;12.75;;
48042;SDS011;33988;47.992;8.820;2022-08-19T10:42:40;13.57;;;11.55;;
48042;SDS011;33988;47.992;8.820;2022-08-19T10:45:10;14.65;;;12.48;;
48042;SDS011;33988;47.992;8.820;2022-08-19T10:47:37;16.70;;;12.38;;
48042;SDS011;33988;47.992;8.820;2022-08-19T10:50:04;14.02;;;11.40;;
48042;SDS011;33988;47.992;8.820;2022-08-19T10:52:55;13.82;;;10.88;;
48042;SDS011;33988;47.992;8.820;2022-08-19T10:55:22;14.93;;;12.13;;
48042;SDS011;33988;47.992;8.820;2022-08-19T10:58:13;10.77;;;9.65;;
48042;SDS011;33988;47.992;8.820;2022-08-19T11:00:53;11.93;;;9.55;;
48042;SDS011;33988;47.992;8.820;2022-08-19T11:03:23;13.77;;;10.07;;
48042;SDS011;33988;47.992;8.820;2022-08-19T11:06:00;10.80;;;9.18;;
48042;SDS011;33988;47.992;8.820;2022-08-19T11:08:33;10.52;;;9.05;;
48042;SDS011;33988;47.992;8.820;2022-08-19T11:11:08;12.32;;;9.82;;
48042;SDS011;33988;47.992;8.820;2022-08-19T11:13:36;10.73;;;9.18;;
48042;SDS011;33988;47.992;8.820;2022-08-19T11:16:13;12.02;;;10.00;;
48042;SDS011;33988;47.992;8.820;2022-08-19T11:18:45;12.05;;;10.50;;
48042;SDS011;33988;47.992;8.820;2022-08-19T11:21:23;11.48;;;9.70;;
48042;SDS011;33988;47.992;8.820;2022-08-19T11:23:53;11.00;;;9.75;;
48042;SDS011;33988;47.992;8.820;2022-08-19T11:26:25;11.20;;;9.98;;
48042;SDS011;33988;47.992;8.820;2022-08-19T11:28:56;11.20;;;9.55;;
48042;SDS011;33988;47.992;8.820;2022-08-19T11:31:29;10.93;;;9.50;;
48042;SDS011;33988;47.992;8.820;2022-08-19T11:34:03;10.13;;;8.68;;
48042;SDS011;33988;47.992;8.820;2022-08-19T11:36:36;10.63;;;9.48;;
48042;SDS011;33988;47.992;8.820;2022-08-19T11:39:07;10.85;;;9.55;;
48042;SDS011;33988;47.992;8.820;2022-08-19T11:41:41;11.60;;;9.98;;
48042;SDS011;33988;47.992;8.820;2022-08-19T11:44:13;9.63;;;8.57;;
48042;SDS011;33988;47.992;8.820;2022-08-19T11:46:46;11.40;;;9.50;;
48042;SDS011;33988;47.992;8.820;2022-08-19T11:49:16;11.80;;;10.55;;
48042;SDS011;33988;47.992;8.820;2022-08-19T11:51:47;13.23;;;10.23;;
48042;SDS011;33988;47.992;8.820;2022-08-19T11:56:47;10.82;;;9.40;;
48042;SDS011;33988;47.992;8.820;2022-08-19T11:59:22;11.40;;;9.80;;
48042;SDS011;33988;47.992;8.820;2022-08-19T12:01:55;12.90;;;10.38;;
48042;SDS011;33988;47.992;8.820;2022-08-19T12:04:23;11.18;;;10.02;;
48042;SDS011;33988;47.992;8.820;2022-08-19T12:06:50;10.50;;;9.27;;
48042;SDS011;33988;47.992;8.820;2022-08-19T12:09:17;11.15;;;9.60;;
48042;SDS011;33988;47.992;8.820;2022-08-19T12:11:48;11.00;;;9.82;;
48042;SDS011;33988;47.992;8.820;2022-08-19T12:14:17;11.70;;;10.43;;
48042;SDS011;33988;47.992;8.820;2022-08-19T12:16:49;11.52;;;10.32;;
48042;SDS011;33988;47.992;8.820;2022-08-19T12:19:19;14.85;;;10.70;;
48042;SDS011;33988;47.992;8.820;2022-08-19T12:21:51;14.13;;;11.48;;
48042;SDS011;33988;47.992;8.820;2022-08-19T12:24:21;12.85;;;10.40;;
48042;SDS011;33988;47.992;8.820;2022-08-19T12:26:50;11.85;;;10.30;;
48042;SDS011;33988;47.992;8.820;2022-08-19T12:29:19;11.32;;;9.13;;
48042;SDS011;33988;47.992;8.820;2022-08-19T12:31:49;12.67;;;11.37;;
48042;SDS011;33988;47.992;8.820;2022-08-19T12:34:17;11.60;;;10.30;;
48042;SDS011;33988;47.992;8.820;2022-08-19T12:36:49;15.45;;;10.38;;
48042;SDS011;33988;47.992;8.820;2022-08-19T12:39:16;12.25;;;10.95;;
48042;SDS011;33988;47.992;8.820;2022-08-19T12:41:43;14.05;;;10.00;;
48042;SDS011;33988;47.992;8.820;2022-08-19T12:44:20;11.98;;;9.57;;
48042;SDS011;33988;47.992;8.820;2022-08-19T12:46:57;11.68;;;9.88;;
48042;SDS011;33988;47.992;8.820;2022-08-19T12:49:33;12.15;;;10.85;;
48042;SDS011;33988;47.992;8.820;2022-08-19T12:52:20;11.20;;;9.85;;
48042;SDS011;33988;47.992;8.820;2022-08-19T12:54:50;12.55;;;11.13;;
48042;SDS011;33988;47.992;8.820;2022-08-19T12:57:25;12.40;;;10.80;;
48042;SDS011;33988;47.992;8.820;2022-08-19T13:00:20;13.40;;;10.48;;
48042;SDS011;33988;47.992;8.820;2022-08-19T13:02:50;11.55;;;10.35;;
48042;SDS011;33988;47.992;8.820;2022-08-19T13:05:23;12.68;;;11.38;;
48042;SDS011;33988;47.992;8.820;2022-08-19T13:07:54;12.02;;;10.77;;
48042;SDS011;33988;47.992;8.820;2022-08-19T13:10:25;11.57;;;10.38;;
48042;SDS011;33988;47.992;8.820;2022-08-19T13:12:57;11.82;;;10.48;;
48042;SDS011;33988;47.992;8.820;2022-08-19T13:15:25;15.85;;;10.32;;
48042;SDS011;33988;47.992;8.820;2022-08-19T13:17:57;15.25;;;11.75;;
48042;SDS011;33988;47.992;8.820;2022-08-19T13:20:24;18.23;;;14.15;;
48042;SDS011;33988;47.992;8.820;2022-08-19T13:22:55;14.85;;;12.57;;
48042;SDS011;33988;47.992;8.820;2022-08-19T13:25:23;11.82;;;10.55;;
48042;SDS011;33988;47.992;8.820;2022-08-19T13:27:56;14.20;;;11.23;;
48042;SDS011;33988;47.992;8.820;2022-08-19T13:30:23;13.73;;;11.48;;
48042;SDS011;33988;47.992;8.820;2022-08-19T13:33:11;14.10;;;11.10;;
48042;SDS011;33988;47.992;8.820;2022-08-19T13:38:13;14.02;;;12.40;;
48042;SDS011;33988;47.992;8.820;2022-08-19T13:40:49;12.52;;;11.23;;
48042;SDS011;33988;47.992;8.820;2022-08-19T13:43:22;14.13;;;12.63;;
48042;SDS011;33988;47.992;8.820;2022-08-19T13:45:53;14.15;;;12.65;;
48042;SDS011;33988;47.992;8.820;2022-08-19T13:48:23;12.48;;;10.95;;
48042;SDS011;33988;47.992;8.820;2022-08-19T13:50:53;13.10;;;11.13;;
48042;SDS011;33988;47.992;8.820;2022-08-19T13:53:22;12.45;;;11.15;;
48042;SDS011;33988;47.992;8.820;2022-08-19T13:55:49;11.95;;;10.35;;
48042;SDS011;33988;47.992;8.820;2022-08-19T13:58:17;15.40;;;12.40;;
48042;SDS011;33988;47.992;8.820;2022-08-19T14:00:45;14.60;;;13.00;;
48042;SDS011;33988;47.992;8.820;2022-08-19T14:03:13;14.93;;;12.50;;
48042;SDS011;33988;47.992;8.820;2022-08-19T14:05:40;14.98;;;12.65;;
48042;SDS011;33988;47.992;8.820;2022-08-19T14:08:10;14.00;;;11.98;;
48042;SDS011;33988;47.992;8.820;2022-08-19T14:10:40;12.35;;;11.07;;
48042;SDS011;33988;47.992;8.820;2022-08-19T14:13:10;13.68;;;12.27;;
48042;SDS011;33988;47.992;8.820;2022-08-19T14:15:46;14.27;;;12.18;;
48042;SDS011;33988;47.992;8.820;2022-08-19T14:18:14;15.25;;;13.40;;
48042;SDS011;33988;47.992;8.820;2022-08-19T14:20:42;14.32;;;12.82;;
48042;SDS011;33988;47.992;8.820;2022-08-19T14:23:10;13.77;;;11.77;;
48042;SDS011;33988;47.992;8.820;2022-08-19T14:25:39;15.43;;;13.82;;
48042;SDS011;33988;47.992;8.820;2022-08-19T14:28:09;14.90;;;12.90;;
48042;SDS011;33988;47.992;8.820;2022-08-19T14:30:39;13.32;;;11.95;;
48042;SDS011;33988;47.992;8.820;2022-08-19T14:33:10;14.02;;;12.52;;
48042;SDS011;33988;47.992;8.820;2022-08-19T14:35:37;12.98;;;11.65;;
48042;SDS011;33988;47.992;8.820;2022-08-19T14:38:14;13.27;;;11.85;;
48042;SDS011;33988;47.992;8.820;2022-08-19T14:40:49;14.52;;;13.02;;
48042;SDS011;33988;47.992;8.820;2022-08-19T14:43:19;13.45;;;11.88;;
48042;SDS011;33988;47.992;8.820;2022-08-19T14:45:48;15.02;;;12.60;;
48042;SDS011;33988;47.992;8.820;2022-08-19T14:48:16;12.00;;;10.82;;
48042;SDS011;33988;47.992;8.820;2022-08-19T14:50:45;14.30;;;12.80;;
48042;SDS011;33988;47.992;8.820;2022-08-19T14:53:12;16.23;;;13.88;;
48042;SDS011;33988;47.992;8.820;2022-08-19T14:55:45;13.27;;;11.93;;
48042;SDS011;33988;47.992;8.820;2022-08-19T14:58:13;14.25;;;12.73;;
48042;SDS011;33988;47.992;8.820;2022-08-19T15:00:58;12.38;;;11.13;;
48042;SDS011;33988;47.992;8.820;2022-08-19T15:03:26;13.27;;;11.87;;
48042;SDS011;33988;47.992;8.820;2022-08-19T15:05:54;12.95;;;11.63;;
48042;SDS011;33988;47.992;8.820;2022-08-19T15:08:24;14.43;;;12.93;;
48042;SDS011;33988;47.992;8.820;2022-08-19T15:13:24;12.70;;;11.25;;
48042;SDS011;33988;47.992;8.820;2022-08-19T15:15:56;13.10;;;11.65;;